Estación de Freire

Ultimos registro cada 15 minutos 61
Estación Fecha / Hora Temperatura Humedad Lluvia Velocidad Dirección Radiación Presion
61 Freire 04-05-2026 15:15 12,2 100 0 0,4 176 58 1009,6
60 Freire 04-05-2026 15:00 12,2 100 0 0,9 176 56 1009,6
59 Freire 04-05-2026 14:45 12,1 100 0 0,4 176 60 1009,6
58 Freire 04-05-2026 14:30 12,1 100 0 0 176 60 1009,6
57 Freire 04-05-2026 14:15 12 100 0 0,9 176 65 1009,6
56 Freire 04-05-2026 14:00 11,8 100 0 0 176 69 1009,6
55 Freire 04-05-2026 13:45 11,8 100 0 0,9 176 39 1009,6
54 Freire 04-05-2026 13:30 11,8 100 0 0,4 176 62 1009,6
53 Freire 04-05-2026 13:15 11,8 100 0 0 176 60 1009,6
52 Freire 04-05-2026 13:00 11,7 100 0 0,4 176 39 1009,6
51 Freire 04-05-2026 12:45 11,5 100 0 0,4 176 91 1009,6
50 Freire 04-05-2026 12:30 11,4 100 0 0,4 176 98 1009,6
49 Freire 04-05-2026 12:15 11,3 100 0 0 176 79 1009,6
48 Freire 04-05-2026 12:00 11,2 100 0 0 176 63 1009,6
47 Freire 04-05-2026 11:45 11,1 100 0 0 176 84 1009,6
46 Freire 04-05-2026 11:30 11,1 100 0 0 176 84 1009,6
45 Freire 04-05-2026 11:15 11 100 0 0 176 84 1009,6
44 Freire 04-05-2026 11:00 10,7 100 0 0 176 70 1009,6
43 Freire 04-05-2026 10:45 10,3 100 0 0 176 86 1009,6
42 Freire 04-05-2026 10:30 10,2 100 0 0 176 51 1009,6
41 Freire 04-05-2026 10:15 10 100 0 0 176 44 1009,6
40 Freire 04-05-2026 09:45 9,8 100 0 0 176 40 1009,6
39 Freire 04-05-2026 09:30 9,7 100 0 0 176 37 1009,6
38 Freire 04-05-2026 09:15 9,7 100 0 0 176 28 1009,6
37 Freire 04-05-2026 09:00 9,6 99 0 0 176 19 1009,6
36 Freire 04-05-2026 08:45 9,6 99 0 0 176 12 1009,6
35 Freire 04-05-2026 08:30 9,5 99 0 0 176 18 1009,6
34 Freire 04-05-2026 08:15 9,4 100 0 0 176 19 1009,6
33 Freire 04-05-2026 08:00 9,4 100 0 0 176 0 1009,6
32 Freire 04-05-2026 07:45 9,3 100 0 0 176 0 1009,6
31 Freire 04-05-2026 07:30 9,3 100 0,5 0,4 176 0 1009,6
30 Freire 04-05-2026 07:15 9,2 99 0,3 0 176 0 1009,6
29 Freire 04-05-2026 07:00 9,1 99 0,8 0 176 0 1009,6
28 Freire 04-05-2026 06:45 9 99 0,3 0 176 0 1009,6
27 Freire 04-05-2026 06:30 8,9 99 0 0 176 0 1009,6
26 Freire 04-05-2026 06:15 8,9 99 0 0 176 0 1009,6
25 Freire 04-05-2026 06:00 8,9 99 0 0 176 0 1009,6
24 Freire 04-05-2026 05:45 8,9 99 0 0 176 0 1009,6
23 Freire 04-05-2026 05:30 8,9 99 0 0 176 0 1009,6
22 Freire 04-05-2026 05:15 8,9 99 0 0 176 0 1009,6
21 Freire 04-05-2026 05:00 8,9 99 0 0 176 0 1009,6
20 Freire 04-05-2026 04:45 8,9 99 0 0 176 0 1009,6
19 Freire 04-05-2026 04:30 9 99 0 0 176 0 1009,6
18 Freire 04-05-2026 04:15 9,1 99 0 0 176 0 1009,6
17 Freire 04-05-2026 04:00 9,1 99 0 0 176 0 1009,6
16 Freire 04-05-2026 03:45 9,1 99 0 0 176 0 1009,6
15 Freire 04-05-2026 03:30 9,1 99 0 0 176 0 1009,6
14 Freire 04-05-2026 03:15 9,1 99 0,3 0,4 176 0 1009,6
13 Freire 04-05-2026 03:00 9,1 99 0 0 176 0 1009,6
12 Freire 04-05-2026 02:45 9 99 0 0 176 0 1009,6
11 Freire 04-05-2026 02:30 8,9 99 0 0 176 0 1009,6
10 Freire 04-05-2026 02:15 8,8 99 0 0 176 0 1009,6
9 Freire 04-05-2026 02:00 8,6 99 0 0 176 0 1009,6
8 Freire 04-05-2026 01:45 8,4 99 0 0 176 0 1009,6
7 Freire 04-05-2026 01:30 8,3 99 0 0 176 0 1009,6
6 Freire 04-05-2026 01:15 8,3 99 0 0 176 0 1009,6
5 Freire 04-05-2026 01:00 8,3 99 0 0 176 0 1009,6
4 Freire 04-05-2026 00:45 8,4 98 0 0 176 0 1009,6
3 Freire 04-05-2026 00:30 8,6 98 0 0 176 0 1009,6
2 Freire 04-05-2026 00:15 8,8 99 0 0 176 0 1009,6
1 Freire 04-05-2026 00:00 9,1 99 0 0 176 0 1009,6